createdAt,value
2023-03-24T00:02:51.851Z,100100.17
2023-03-24T00:08:15.170Z,100086.94
2023-03-24T00:13:40.724Z,100092.41
2023-03-24T00:19:03.401Z,100093.18
2023-03-24T00:24:25.790Z,100086.56
2023-03-24T00:29:48.047Z,100097.70
2023-03-24T00:35:13.229Z,100093.56
2023-03-24T00:40:37.225Z,100094.73
2023-03-24T00:46:02.343Z,100100.08
2023-03-24T00:51:25.427Z,100086.84
2023-03-24T00:56:50.159Z,100072.53
2023-03-24T01:02:15.478Z,100072.83
2023-03-24T01:07:41.101Z,100066.12
2023-03-24T01:13:05.777Z,100045.08
2023-03-24T01:18:28.643Z,100054.17
2023-03-24T01:23:51.390Z,100051.36
2023-03-24T01:29:13.658Z,100045.59
2023-03-24T01:34:36.820Z,100051.22
2023-03-24T01:39:59.144Z,100043.77
2023-03-24T01:45:59.662Z,100053.10
2023-03-24T01:51:38.266Z,100033.47
2023-03-24T01:57:06.827Z,100035.36
2023-03-24T02:02:30.314Z,100039.92
2023-03-24T02:08:03.626Z,100024.98
2023-03-24T02:13:26.560Z,100023.17
2023-03-24T02:19:18.882Z,100020.39
2023-03-24T02:25:28.234Z,100009.69
2023-03-24T02:31:25.824Z,99998.16
2023-03-24T02:37:17.300Z,99999.95
2023-03-24T02:43:05.187Z,100011.59
2023-03-24T02:48:58.744Z,100011.59
2023-03-24T02:54:35.005Z,100013.63
2023-03-24T03:00:12.667Z,100007.35
2023-03-24T03:05:39.868Z,100005.20
2023-03-24T03:11:08.025Z,100010.97
2023-03-24T03:16:39.609Z,100006.78
2023-03-24T03:22:24.244Z,99989.95
2023-03-24T03:27:49.867Z,99993.23
2023-03-24T03:33:18.581Z,99985.91
2023-03-24T03:39:14.150Z,99985.34
2023-03-24T03:44:37.866Z,99985.97
2023-03-24T03:50:00.367Z,99979.91
2023-03-24T03:55:24.775Z,99968.95
2023-03-24T04:00:48.254Z,99960.84
2023-03-24T04:06:20.090Z,99954.47
2023-03-24T04:12:18.153Z,99948.91
2023-03-24T04:18:18.920Z,99935.17
2023-03-24T04:23:55.002Z,99939.31
2023-03-24T04:29:45.269Z,99936.09
2023-03-24T04:35:14.606Z,99918.11
2023-03-24T04:40:39.965Z,99906.99
2023-03-24T04:46:02.788Z,99897.29
2023-03-24T04:51:29.029Z,99897.18
2023-03-24T04:57:04.309Z,99880.33
2023-03-24T05:02:27.478Z,99882.88
2023-03-24T05:07:50.641Z,99879.05
2023-03-24T05:13:14.419Z,99871.36
2023-03-24T05:18:38.086Z,99869.02
2023-03-24T05:24:00.470Z,99864.95
2023-03-24T05:29:22.941Z,99854.13
2023-03-24T05:34:46.118Z,99847.66
2023-03-24T05:40:09.201Z,99849.25
2023-03-24T05:45:31.859Z,99840.16
2023-03-24T05:50:54.344Z,99840.45
2023-03-24T05:56:17.427Z,99839.47
2023-03-24T06:01:39.738Z,99822.30
2023-03-24T06:07:03.128Z,99817.13
2023-03-24T06:12:26.028Z,99826.66
2023-03-24T06:17:50.464Z,99811.40
2023-03-24T06:23:12.790Z,99807.66
2023-03-24T06:28:35.751Z,99803.81
2023-03-24T06:33:58.397Z,99797.38
2023-03-24T06:39:21.574Z,99795.34
2023-03-24T06:44:44.141Z,99797.66
2023-03-24T06:50:07.404Z,99787.53
2023-03-24T06:55:29.780Z,99777.98
2023-03-24T07:00:52.238Z,99775.83
2023-03-24T07:06:14.928Z,99778.70
2023-03-24T07:11:37.362Z,99769.39
2023-03-24T07:16:59.639Z,99753.95
2023-03-24T07:22:22.402Z,99755.84
2023-03-24T07:27:44.845Z,99755.49
2023-03-24T07:33:11.371Z,99752.20
2023-03-24T07:38:46.159Z,99751.83
2023-03-24T07:44:10.317Z,99736.15
2023-03-24T07:49:32.759Z,99734.45
2023-03-24T07:54:55.095Z,99729.94
2023-03-24T08:00:21.691Z,99725.14
2023-03-24T08:05:44.613Z,99710.58
2023-03-24T08:11:07.423Z,99702.25
2023-03-24T08:16:30.039Z,99696.17
2023-03-24T08:21:52.849Z,99689.96
2023-03-24T08:27:17.021Z,99676.16
2023-03-24T08:32:42.527Z,99672.05
2023-03-24T08:38:07.099Z,99667.00
2023-03-24T08:43:31.049Z,99669.21
2023-03-24T08:48:54.163Z,99664.24
2023-03-24T08:54:19.698Z,99652.82
2023-03-24T08:59:41.974Z,99631.09
2023-03-24T09:05:04.904Z,99632.78
2023-03-24T09:10:28.983Z,99625.86
2023-03-24T09:15:55.229Z,99606.55
2023-03-24T09:21:18.188Z,99601.77
2023-03-24T09:26:40.747Z,99601.16
2023-03-24T09:32:03.752Z,99590.31
2023-03-24T09:37:26.186Z,99588.86
2023-03-24T09:42:55.859Z,99589.42
2023-03-24T10:01:26.835Z,99523.61
2023-03-24T10:17:45.208Z,99516.70
2023-03-24T10:23:24.398Z,99541.55
2023-03-24T10:29:01.093Z,99538.39
2023-03-24T10:34:30.507Z,99525.59
2023-03-24T10:39:56.295Z,99521.97
2023-03-24T10:45:20.523Z,99514.70
2023-03-24T10:50:48.520Z,99513.45
2023-03-24T10:56:11.061Z,99486.74
2023-03-24T11:01:42.576Z,99484.41
2023-03-24T11:07:21.288Z,99482.13
2023-03-24T11:18:32.010Z,99505.00
2023-03-24T11:23:52.845Z,99489.91
2023-03-24T11:29:30.573Z,99475.63
2023-03-24T11:35:01.653Z,99465.72
2023-03-24T11:40:31.556Z,99475.53
2023-03-24T11:46:14.049Z,99459.86
2023-03-24T11:51:45.462Z,99466.38
2023-03-24T11:57:17.929Z,99467.78
2023-03-24T12:02:48.730Z,99465.81
2023-03-24T12:08:37.831Z,99447.52
2023-03-24T12:14:05.598Z,99481.84
2023-03-24T12:19:56.510Z,99472.62
2023-03-24T12:25:49.685Z,99469.95
2023-03-24T12:31:57.607Z,99473.78
2023-03-24T12:37:45.575Z,99504.87
2023-03-24T12:49:15.695Z,99493.38
2023-03-24T12:55:05.244Z,99510.67
2023-03-24T13:00:41.326Z,99491.76
2023-03-24T13:06:17.570Z,99481.80
2023-03-24T13:17:40.494Z,99478.02
2023-03-24T13:23:36.890Z,99464.01
2023-03-24T13:41:52.352Z,99456.35
2023-03-24T13:53:55.482Z,99444.67
2023-03-24T13:59:42.250Z,99448.02
2023-03-24T14:05:31.916Z,99439.64
2023-03-24T14:11:03.456Z,99428.61
2023-03-24T14:16:53.060Z,99437.89
2023-03-24T14:22:50.152Z,99447.84
2023-03-24T14:28:33.046Z,99420.97
2023-03-24T14:34:13.583Z,99414.25
2023-03-24T14:39:48.593Z,99390.94
2023-03-24T14:45:15.154Z,99406.25
2023-03-24T14:50:43.890Z,99419.05
2023-03-24T14:56:21.952Z,99410.51
2023-03-24T15:07:26.045Z,99423.52
2023-03-24T15:13:21.706Z,99432.78
2023-03-24T15:18:31.438Z,99452.14
2023-03-24T15:23:53.985Z,99463.20
2023-03-24T15:29:18.998Z,99442.25
2023-03-24T15:34:57.266Z,99417.93
2023-03-24T15:40:34.044Z,99425.75
2023-03-24T15:46:12.405Z,99417.97
2023-03-24T15:57:37.731Z,99428.28
2023-03-24T16:03:09.582Z,99422.28
2023-03-24T16:08:51.645Z,99421.95
2023-03-24T16:20:16.478Z,99405.39
2023-03-24T16:25:38.979Z,99401.52
2023-03-24T16:31:07.819Z,99403.59
2023-03-24T16:36:32.871Z,99399.38
2023-03-24T16:41:55.846Z,99423.89
2023-03-24T16:47:18.236Z,99422.71
2023-03-24T16:52:40.645Z,99419.19
2023-03-24T16:58:02.983Z,99406.05
2023-03-24T17:03:25.741Z,99407.42
2023-03-24T17:08:48.192Z,99418.06
2023-03-24T17:19:44.623Z,99438.84
2023-03-24T17:25:07.156Z,99458.28
2023-03-24T17:30:40.477Z,99485.79
2023-03-24T17:41:44.070Z,99509.53
2023-03-24T17:47:07.772Z,99516.33
2023-03-24T17:52:30.964Z,99525.14
2023-03-24T17:57:53.984Z,99509.17
2023-03-24T18:03:17.051Z,99520.16
2023-03-24T18:08:39.514Z,99541.97
2023-03-24T18:14:02.230Z,99548.06
2023-03-24T18:19:25.880Z,99584.41
2023-03-24T18:24:48.562Z,99578.88
2023-03-24T18:30:13.274Z,99541.17
2023-03-24T18:35:36.069Z,99516.32
2023-03-24T18:41:05.302Z,99502.22
2023-03-24T18:46:28.968Z,99522.86
2023-03-24T18:51:51.845Z,99523.42
2023-03-24T18:57:14.335Z,99529.37
2023-03-24T19:02:41.206Z,99528.92
2023-03-24T19:08:05.400Z,99533.56
2023-03-24T19:13:32.049Z,99551.01
2023-03-24T19:18:56.800Z,99556.05
2023-03-24T19:24:19.585Z,99576.72
2023-03-24T19:29:42.204Z,99571.91
2023-03-24T19:35:05.563Z,99578.73
2023-03-24T19:40:29.158Z,99574.03
2023-03-24T19:45:58.685Z,99585.31
2023-03-24T19:51:21.755Z,99593.25
2023-03-24T19:56:44.252Z,99601.72
2023-03-24T20:02:07.558Z,99593.82
2023-03-24T20:07:31.361Z,99585.08
2023-03-24T20:12:54.125Z,99578.06
2023-03-24T20:18:17.020Z,99576.51
2023-03-24T20:23:39.575Z,99586.30
2023-03-24T20:29:02.290Z,99589.03
2023-03-24T20:34:24.754Z,99584.66
2023-03-24T20:39:47.118Z,99592.39
2023-03-24T20:45:09.499Z,99593.95
2023-03-24T20:50:31.852Z,99601.30
2023-03-24T20:56:02.020Z,99602.78
2023-03-24T21:01:22.951Z,99606.33
2023-03-24T21:06:45.354Z,99619.02
2023-03-24T21:12:07.589Z,99632.52
2023-03-24T21:17:31.520Z,99620.75
2023-03-24T21:22:55.285Z,99621.64
2023-03-24T21:28:20.865Z,99626.98
2023-03-24T21:33:44.913Z,99632.50
2023-03-24T21:39:09.249Z,99640.74
2023-03-24T21:44:32.517Z,99629.48
2023-03-24T21:49:56.464Z,99639.20
2023-03-24T21:55:20.788Z,99649.17
2023-03-24T22:00:45.284Z,99651.95
2023-03-24T22:11:43.297Z,99662.66
2023-03-24T22:17:05.569Z,99656.23
2023-03-24T22:22:27.897Z,99672.27
2023-03-24T22:27:52.872Z,99662.05
2023-03-24T22:33:15.734Z,99670.19
2023-03-24T22:38:44.070Z,99669.09
2023-03-24T22:44:06.480Z,99680.97
2023-03-24T22:49:29.682Z,99674.29
2023-03-24T22:54:52.002Z,99676.06
2023-03-24T23:00:15.017Z,99682.14
2023-03-24T23:05:37.256Z,99704.22
2023-03-24T23:11:01.211Z,99701.61
2023-03-24T23:16:24.019Z,99693.81
2023-03-24T23:21:47.499Z,99712.05
2023-03-24T23:27:09.743Z,99711.92
2023-03-24T23:32:32.109Z,99690.63
2023-03-24T23:37:55.478Z,99674.98
2023-03-24T23:43:17.852Z,99669.80
2023-03-24T23:48:42.133Z,99663.25
2023-03-24T23:54:04.520Z,99669.22
2023-03-24T23:59:27.800Z,99662.19
